sensor_id;sensor_type;location;lat;lon;timestamp;temperature;humidity
10282;DHT22;5186;59.472;18.048;2022-10-30T00:00:38;5.40;99.90
10282;DHT22;5186;59.472;18.048;2022-10-30T00:03:04;5.30;99.90
10282;DHT22;5186;59.472;18.048;2022-10-30T00:05:30;5.30;99.90
10282;DHT22;5186;59.472;18.048;2022-10-30T00:07:57;5.30;99.90
10282;DHT22;5186;59.472;18.048;2022-10-30T00:10:24;5.20;99.90
10282;DHT22;5186;59.472;18.048;2022-10-30T00:12:50;5.10;99.90
10282;DHT22;5186;59.472;18.048;2022-10-30T00:15:16;5.10;99.90
10282;DHT22;5186;59.472;18.048;2022-10-30T00:17:41;5.00;99.90
10282;DHT22;5186;59.472;18.048;2022-10-30T00:20:07;5.00;99.90
10282;DHT22;5186;59.472;18.048;2022-10-30T00:22:36;4.90;99.90
10282;DHT22;5186;59.472;18.048;2022-10-30T00:25:03;4.90;99.90
10282;DHT22;5186;59.472;18.048;2022-10-30T00:27:29;4.80;99.90
10282;DHT22;5186;59.472;18.048;2022-10-30T00:29:54;4.80;99.90
10282;DHT22;5186;59.472;18.048;2022-10-30T00:32:20;4.80;99.90
10282;DHT22;5186;59.472;18.048;2022-10-30T00:34:46;4.70;99.90
10282;DHT22;5186;59.472;18.048;2022-10-30T00:37:11;4.70;99.90
10282;DHT22;5186;59.472;18.048;2022-10-30T00:39:37;4.60;99.90
10282;DHT22;5186;59.472;18.048;2022-10-30T00:42:02;4.60;99.90
10282;DHT22;5186;59.472;18.048;2022-10-30T00:46:59;4.50;99.90
10282;DHT22;5186;59.472;18.048;2022-10-30T00:49:31;4.50;99.90
10282;DHT22;5186;59.472;18.048;2022-10-30T00:51:59;4.50;99.90
10282;DHT22;5186;59.472;18.048;2022-10-30T00:54:26;4.50;99.90
10282;DHT22;5186;59.472;18.048;2022-10-30T00:56:53;4.40;99.90
10282;DHT22;5186;59.472;18.048;2022-10-30T00:59:23;4.40;99.90
10282;DHT22;5186;59.472;18.048;2022-10-30T01:01:51;4.30;99.90
10282;DHT22;5186;59.472;18.048;2022-10-30T01:04:18;4.30;99.90
10282;DHT22;5186;59.472;18.048;2022-10-30T01:06:47;4.30;99.90
10282;DHT22;5186;59.472;18.048;2022-10-30T01:09:13;4.20;99.90
10282;DHT22;5186;59.472;18.048;2022-10-30T01:11:39;4.20;99.90
10282;DHT22;5186;59.472;18.048;2022-10-30T01:14:07;4.10;99.90
10282;DHT22;5186;59.472;18.048;2022-10-30T01:30:07;3.90;99.90
10282;DHT22;5186;59.472;18.048;2022-10-30T01:33:05;3.80;99.90
10282;DHT22;5186;59.472;18.048;2022-10-30T01:35:51;3.80;99.90
10282;DHT22;5186;59.472;18.048;2022-10-30T01:39:05;3.80;99.90
10282;DHT22;5186;59.472;18.048;2022-10-30T01:41:10;3.70;99.90
10282;DHT22;5186;59.472;18.048;2022-10-30T01:43:36;3.70;99.90
10282;DHT22;5186;59.472;18.048;2022-10-30T01:46:38;3.70;99.90
10282;DHT22;5186;59.472;18.048;2022-10-30T01:57:19;3.60;99.90
10282;DHT22;5186;59.472;18.048;2022-10-30T02:02:15;3.50;99.90
10282;DHT22;5186;59.472;18.048;2022-10-30T02:04:41;3.50;99.90
10282;DHT22;5186;59.472;18.048;2022-10-30T02:07:07;3.40;99.90
10282;DHT22;5186;59.472;18.048;2022-10-30T02:09:34;3.40;99.90
10282;DHT22;5186;59.472;18.048;2022-10-30T02:12:01;3.40;99.90
10282;DHT22;5186;59.472;18.048;2022-10-30T02:14:34;3.40;99.90
10282;DHT22;5186;59.472;18.048;2022-10-30T02:17:02;3.40;99.90
10282;DHT22;5186;59.472;18.048;2022-10-30T02:19:28;3.40;99.90
10282;DHT22;5186;59.472;18.048;2022-10-30T02:21:54;3.40;99.90
10282;DHT22;5186;59.472;18.048;2022-10-30T02:24:20;3.40;99.90
10282;DHT22;5186;59.472;18.048;2022-10-30T02:26:45;3.40;99.90
10282;DHT22;5186;59.472;18.048;2022-10-30T02:29:11;3.40;99.90
10282;DHT22;5186;59.472;18.048;2022-10-30T02:31:37;3.40;99.90
10282;DHT22;5186;59.472;18.048;2022-10-30T02:34:02;3.40;99.90
10282;DHT22;5186;59.472;18.048;2022-10-30T02:36:28;3.50;99.90
10282;DHT22;5186;59.472;18.048;2022-10-30T02:38:54;3.40;99.90
10282;DHT22;5186;59.472;18.048;2022-10-30T02:41:23;3.40;99.90
10282;DHT22;5186;59.472;18.048;2022-10-30T02:43:50;3.40;99.90
10282;DHT22;5186;59.472;18.048;2022-10-30T02:46:17;3.50;99.90
10282;DHT22;5186;59.472;18.048;2022-10-30T02:48:43;3.50;99.90
10282;DHT22;5186;59.472;18.048;2022-10-30T02:51:09;3.50;99.90
10282;DHT22;5186;59.472;18.048;2022-10-30T02:53:34;3.50;99.90
10282;DHT22;5186;59.472;18.048;2022-10-30T02:56:05;3.50;99.90
10282;DHT22;5186;59.472;18.048;2022-10-30T02:58:31;3.50;99.90
10282;DHT22;5186;59.472;18.048;2022-10-30T03:00:57;3.50;99.90
10282;DHT22;5186;59.472;18.048;2022-10-30T03:03:22;3.50;99.90
10282;DHT22;5186;59.472;18.048;2022-10-30T03:05:48;3.40;99.90
10282;DHT22;5186;59.472;18.048;2022-10-30T03:08:13;3.40;99.90
10282;DHT22;5186;59.472;18.048;2022-10-30T03:10:39;3.30;99.90
10282;DHT22;5186;59.472;18.048;2022-10-30T03:13:04;3.30;99.90
10282;DHT22;5186;59.472;18.048;2022-10-30T03:15:30;3.30;99.90
10282;DHT22;5186;59.472;18.048;2022-10-30T03:17:56;3.30;99.90
10282;DHT22;5186;59.472;18.048;2022-10-30T03:20:21;3.20;99.90
10282;DHT22;5186;59.472;18.048;2022-10-30T03:22:47;3.20;99.90
10282;DHT22;5186;59.472;18.048;2022-10-30T03:25:12;3.20;99.90
10282;DHT22;5186;59.472;18.048;2022-10-30T03:27:38;3.20;99.90
10282;DHT22;5186;59.472;18.048;2022-10-30T03:30:04;3.20;99.90
10282;DHT22;5186;59.472;18.048;2022-10-30T03:32:30;3.20;99.90
10282;DHT22;5186;59.472;18.048;2022-10-30T03:34:55;3.20;99.90
10282;DHT22;5186;59.472;18.048;2022-10-30T03:37:21;3.20;99.90
10282;DHT22;5186;59.472;18.048;2022-10-30T03:39:46;3.10;99.90
10282;DHT22;5186;59.472;18.048;2022-10-30T03:42:12;3.10;99.90
10282;DHT22;5186;59.472;18.048;2022-10-30T03:44:37;3.10;99.90
10282;DHT22;5186;59.472;18.048;2022-10-30T03:47:03;3.10;99.90
10282;DHT22;5186;59.472;18.048;2022-10-30T03:49:29;3.00;99.90
10282;DHT22;5186;59.472;18.048;2022-10-30T03:51:54;3.00;99.90
10282;DHT22;5186;59.472;18.048;2022-10-30T03:54:20;3.00;99.90
10282;DHT22;5186;59.472;18.048;2022-10-30T03:56:45;3.00;99.90
10282;DHT22;5186;59.472;18.048;2022-10-30T03:59:11;3.00;99.90
10282;DHT22;5186;59.472;18.048;2022-10-30T04:01:37;3.00;99.90
10282;DHT22;5186;59.472;18.048;2022-10-30T04:04:03;3.00;99.90
10282;DHT22;5186;59.472;18.048;2022-10-30T04:06:28;3.00;99.90
10282;DHT22;5186;59.472;18.048;2022-10-30T04:08:54;2.90;99.90
10282;DHT22;5186;59.472;18.048;2022-10-30T04:11:20;2.90;99.90
10282;DHT22;5186;59.472;18.048;2022-10-30T04:13:45;2.90;99.90
10282;DHT22;5186;59.472;18.048;2022-10-30T04:16:11;2.90;99.90
10282;DHT22;5186;59.472;18.048;2022-10-30T04:18:37;2.80;99.90
10282;DHT22;5186;59.472;18.048;2022-10-30T04:21:03;2.80;99.90
10282;DHT22;5186;59.472;18.048;2022-10-30T04:23:28;2.80;99.90
10282;DHT22;5186;59.472;18.048;2022-10-30T04:25:54;2.80;99.90
10282;DHT22;5186;59.472;18.048;2022-10-30T04:28:19;2.80;99.90
10282;DHT22;5186;59.472;18.048;2022-10-30T04:30:46;2.80;99.90
10282;DHT22;5186;59.472;18.048;2022-10-30T04:33:12;2.70;99.90
10282;DHT22;5186;59.472;18.048;2022-10-30T04:35:39;2.70;99.90
10282;DHT22;5186;59.472;18.048;2022-10-30T04:38:10;2.70;99.90
10282;DHT22;5186;59.472;18.048;2022-10-30T04:40:37;2.70;99.90
10282;DHT22;5186;59.472;18.048;2022-10-30T04:43:04;2.70;99.90
10282;DHT22;5186;59.472;18.048;2022-10-30T04:45:30;2.60;99.90
10282;DHT22;5186;59.472;18.048;2022-10-30T04:48:07;2.60;99.90
10282;DHT22;5186;59.472;18.048;2022-10-30T04:50:33;2.60;99.90
10282;DHT22;5186;59.472;18.048;2022-10-30T04:53:09;2.50;99.90
10282;DHT22;5186;59.472;18.048;2022-10-30T04:55:36;2.50;99.90
10282;DHT22;5186;59.472;18.048;2022-10-30T04:58:02;2.50;99.90
10282;DHT22;5186;59.472;18.048;2022-10-30T05:00:30;2.50;99.90
10282;DHT22;5186;59.472;18.048;2022-10-30T05:02:58;2.40;99.90
10282;DHT22;5186;59.472;18.048;2022-10-30T05:05:25;2.40;99.90
10282;DHT22;5186;59.472;18.048;2022-10-30T05:07:50;2.40;99.90
10282;DHT22;5186;59.472;18.048;2022-10-30T05:10:16;2.40;99.90
10282;DHT22;5186;59.472;18.048;2022-10-30T05:12:43;2.40;99.90
10282;DHT22;5186;59.472;18.048;2022-10-30T05:15:10;2.30;99.90
10282;DHT22;5186;59.472;18.048;2022-10-30T05:17:36;2.40;99.90
10282;DHT22;5186;59.472;18.048;2022-10-30T05:20:02;2.40;99.90
10282;DHT22;5186;59.472;18.048;2022-10-30T05:22:27;2.30;99.90
10282;DHT22;5186;59.472;18.048;2022-10-30T05:24:53;2.30;99.90
10282;DHT22;5186;59.472;18.048;2022-10-30T05:27:18;2.30;99.90
10282;DHT22;5186;59.472;18.048;2022-10-30T05:29:44;2.30;99.90
10282;DHT22;5186;59.472;18.048;2022-10-30T05:32:09;2.30;99.90
10282;DHT22;5186;59.472;18.048;2022-10-30T05:34:35;2.30;99.90
10282;DHT22;5186;59.472;18.048;2022-10-30T05:37:01;2.30;99.90
10282;DHT22;5186;59.472;18.048;2022-10-30T05:39:26;2.30;99.90
10282;DHT22;5186;59.472;18.048;2022-10-30T05:41:52;2.30;99.90
10282;DHT22;5186;59.472;18.048;2022-10-30T05:44:18;2.30;99.90
10282;DHT22;5186;59.472;18.048;2022-10-30T05:46:44;2.30;99.90
10282;DHT22;5186;59.472;18.048;2022-10-30T05:49:09;2.30;99.90
10282;DHT22;5186;59.472;18.048;2022-10-30T05:51:35;2.30;99.90
10282;DHT22;5186;59.472;18.048;2022-10-30T05:54:00;2.30;99.90
10282;DHT22;5186;59.472;18.048;2022-10-30T05:56:26;2.30;99.90
10282;DHT22;5186;59.472;18.048;2022-10-30T05:58:52;2.20;99.90
10282;DHT22;5186;59.472;18.048;2022-10-30T06:01:17;2.20;99.90
10282;DHT22;5186;59.472;18.048;2022-10-30T06:03:43;2.20;99.90
10282;DHT22;5186;59.472;18.048;2022-10-30T06:06:09;2.20;99.90
10282;DHT22;5186;59.472;18.048;2022-10-30T06:08:34;2.20;99.90
10282;DHT22;5186;59.472;18.048;2022-10-30T06:11:00;2.20;99.90
10282;DHT22;5186;59.472;18.048;2022-10-30T06:13:26;2.20;99.90
10282;DHT22;5186;59.472;18.048;2022-10-30T06:15:54;2.20;99.90
10282;DHT22;5186;59.472;18.048;2022-10-30T06:18:21;2.20;99.90
10282;DHT22;5186;59.472;18.048;2022-10-30T06:20:46;2.20;99.90
10282;DHT22;5186;59.472;18.048;2022-10-30T06:23:12;2.20;99.90
10282;DHT22;5186;59.472;18.048;2022-10-30T06:25:38;2.20;99.90
10282;DHT22;5186;59.472;18.048;2022-10-30T06:28:04;2.20;99.90
10282;DHT22;5186;59.472;18.048;2022-10-30T06:30:30;2.20;99.90
10282;DHT22;5186;59.472;18.048;2022-10-30T06:33:00;2.20;99.90
10282;DHT22;5186;59.472;18.048;2022-10-30T06:35:26;2.20;99.90
10282;DHT22;5186;59.472;18.048;2022-10-30T06:37:52;2.20;99.90
10282;DHT22;5186;59.472;18.048;2022-10-30T06:40:20;2.20;99.90
10282;DHT22;5186;59.472;18.048;2022-10-30T06:42:47;2.20;99.90
10282;DHT22;5186;59.472;18.048;2022-10-30T06:45:14;2.20;99.90
10282;DHT22;5186;59.472;18.048;2022-10-30T06:47:40;2.20;99.90
10282;DHT22;5186;59.472;18.048;2022-10-30T06:50:08;2.20;99.90
10282;DHT22;5186;59.472;18.048;2022-10-30T06:52:34;2.20;99.90
10282;DHT22;5186;59.472;18.048;2022-10-30T06:55:00;2.20;99.90
10282;DHT22;5186;59.472;18.048;2022-10-30T06:57:26;2.30;99.90
10282;DHT22;5186;59.472;18.048;2022-10-30T06:59:52;2.30;99.90
10282;DHT22;5186;59.472;18.048;2022-10-30T07:02:17;2.30;99.90
10282;DHT22;5186;59.472;18.048;2022-10-30T07:04:43;2.40;99.90
10282;DHT22;5186;59.472;18.048;2022-10-30T07:07:13;2.40;99.90
10282;DHT22;5186;59.472;18.048;2022-10-30T07:09:39;2.50;99.90
10282;DHT22;5186;59.472;18.048;2022-10-30T07:12:06;2.50;99.90
10282;DHT22;5186;59.472;18.048;2022-10-30T07:14:31;2.60;99.90
10282;DHT22;5186;59.472;18.048;2022-10-30T07:16:57;2.60;99.90
10282;DHT22;5186;59.472;18.048;2022-10-30T07:19:23;2.70;99.90
10282;DHT22;5186;59.472;18.048;2022-10-30T07:21:49;2.80;99.90
10282;DHT22;5186;59.472;18.048;2022-10-30T07:24:14;2.90;99.90
10282;DHT22;5186;59.472;18.048;2022-10-30T07:26:40;3.00;99.90
10282;DHT22;5186;59.472;18.048;2022-10-30T07:29:06;3.10;99.90
10282;DHT22;5186;59.472;18.048;2022-10-30T07:31:32;3.20;99.90
10282;DHT22;5186;59.472;18.048;2022-10-30T07:33:57;3.30;99.90
10282;DHT22;5186;59.472;18.048;2022-10-30T07:36:23;3.30;99.90
10282;DHT22;5186;59.472;18.048;2022-10-30T07:38:50;3.40;99.90
10282;DHT22;5186;59.472;18.048;2022-10-30T07:41:17;3.40;99.90
10282;DHT22;5186;59.472;18.048;2022-10-30T07:43:43;3.50;99.90
10282;DHT22;5186;59.472;18.048;2022-10-30T07:46:09;3.50;99.90
10282;DHT22;5186;59.472;18.048;2022-10-30T07:48:35;3.60;99.90
10282;DHT22;5186;59.472;18.048;2022-10-30T07:51:00;3.60;99.90
10282;DHT22;5186;59.472;18.048;2022-10-30T07:53:26;3.70;99.90
10282;DHT22;5186;59.472;18.048;2022-10-30T07:55:52;3.80;99.90
10282;DHT22;5186;59.472;18.048;2022-10-30T07:58:17;3.90;99.90
10282;DHT22;5186;59.472;18.048;2022-10-30T08:00:43;4.00;99.90
10282;DHT22;5186;59.472;18.048;2022-10-30T08:03:10;4.10;99.90
10282;DHT22;5186;59.472;18.048;2022-10-30T08:05:36;4.10;99.90
10282;DHT22;5186;59.472;18.048;2022-10-30T08:08:01;4.20;99.90
10282;DHT22;5186;59.472;18.048;2022-10-30T08:10:27;4.20;99.90
10282;DHT22;5186;59.472;18.048;2022-10-30T08:12:53;4.30;99.90
10282;DHT22;5186;59.472;18.048;2022-10-30T08:15:18;4.40;99.90
10282;DHT22;5186;59.472;18.048;2022-10-30T08:17:46;4.50;99.90
10282;DHT22;5186;59.472;18.048;2022-10-30T08:20:14;4.50;99.90
10282;DHT22;5186;59.472;18.048;2022-10-30T08:22:51;4.70;99.90
10282;DHT22;5186;59.472;18.048;2022-10-30T08:25:18;4.80;99.90
10282;DHT22;5186;59.472;18.048;2022-10-30T08:28:05;5.00;99.90
10282;DHT22;5186;59.472;18.048;2022-10-30T08:30:33;5.10;99.90
10282;DHT22;5186;59.472;18.048;2022-10-30T08:33:02;5.20;99.90
10282;DHT22;5186;59.472;18.048;2022-10-30T08:35:28;5.30;99.90
10282;DHT22;5186;59.472;18.048;2022-10-30T08:37:54;5.30;99.90
10282;DHT22;5186;59.472;18.048;2022-10-30T08:40:20;5.30;99.90
10282;DHT22;5186;59.472;18.048;2022-10-30T08:42:50;5.30;99.90
10282;DHT22;5186;59.472;18.048;2022-10-30T08:45:16;5.40;99.90
10282;DHT22;5186;59.472;18.048;2022-10-30T08:47:41;5.50;99.90
10282;DHT22;5186;59.472;18.048;2022-10-30T08:50:07;5.60;99.90
10282;DHT22;5186;59.472;18.048;2022-10-30T08:52:33;5.70;99.90
10282;DHT22;5186;59.472;18.048;2022-10-30T08:54:58;5.80;99.90
10282;DHT22;5186;59.472;18.048;2022-10-30T08:57:24;5.90;99.90
10282;DHT22;5186;59.472;18.048;2022-10-30T08:59:50;6.00;99.90
10282;DHT22;5186;59.472;18.048;2022-10-30T09:02:15;6.10;99.90
10282;DHT22;5186;59.472;18.048;2022-10-30T09:04:41;6.10;99.90
10282;DHT22;5186;59.472;18.048;2022-10-30T09:07:06;6.20;99.90
10282;DHT22;5186;59.472;18.048;2022-10-30T09:09:32;6.30;99.90
10282;DHT22;5186;59.472;18.048;2022-10-30T09:11:57;6.40;99.90
10282;DHT22;5186;59.472;18.048;2022-10-30T09:14:23;6.50;99.90
10282;DHT22;5186;59.472;18.048;2022-10-30T09:16:49;6.60;99.90
10282;DHT22;5186;59.472;18.048;2022-10-30T09:19:14;6.70;99.90
10282;DHT22;5186;59.472;18.048;2022-10-30T09:21:40;6.70;99.90
10282;DHT22;5186;59.472;18.048;2022-10-30T09:24:06;6.80;99.90
10282;DHT22;5186;59.472;18.048;2022-10-30T09:26:31;6.80;99.90
10282;DHT22;5186;59.472;18.048;2022-10-30T09:28:57;7.00;99.90
10282;DHT22;5186;59.472;18.048;2022-10-30T09:31:22;7.00;99.90
10282;DHT22;5186;59.472;18.048;2022-10-30T09:33:48;7.10;99.90
10282;DHT22;5186;59.472;18.048;2022-10-30T09:36:14;7.10;99.90
10282;DHT22;5186;59.472;18.048;2022-10-30T09:38:39;7.20;99.90
10282;DHT22;5186;59.472;18.048;2022-10-30T09:41:23;7.20;99.90
10282;DHT22;5186;59.472;18.048;2022-10-30T09:46:56;7.40;99.90
10282;DHT22;5186;59.472;18.048;2022-10-30T09:52:27;7.50;99.90
10282;DHT22;5186;59.472;18.048;2022-10-30T09:55:12;7.60;99.90
10282;DHT22;5186;59.472;18.048;2022-10-30T09:58:16;7.60;99.90
10282;DHT22;5186;59.472;18.048;2022-10-30T10:00:51;7.70;99.90
10282;DHT22;5186;59.472;18.048;2022-10-30T10:05:52;7.80;99.90
10282;DHT22;5186;59.472;18.048;2022-10-30T10:08:23;7.90;99.90
10282;DHT22;5186;59.472;18.048;2022-10-30T10:10:56;7.90;99.90
10282;DHT22;5186;59.472;18.048;2022-10-30T10:13:34;7.90;99.90
10282;DHT22;5186;59.472;18.048;2022-10-30T10:16:11;8.00;99.90
10282;DHT22;5186;59.472;18.048;2022-10-30T10:18:47;8.00;99.90
10282;DHT22;5186;59.472;18.048;2022-10-30T10:21:20;8.10;99.90
10282;DHT22;5186;59.472;18.048;2022-10-30T10:23:49;8.10;99.90
10282;DHT22;5186;59.472;18.048;2022-10-30T10:26:26;8.20;99.90
10282;DHT22;5186;59.472;18.048;2022-10-30T10:29:06;8.20;99.90
10282;DHT22;5186;59.472;18.048;2022-10-30T10:31:55;8.20;99.90
10282;DHT22;5186;59.472;18.048;2022-10-30T10:40:01;8.30;99.90
10282;DHT22;5186;59.472;18.048;2022-10-30T10:45:23;8.40;99.90
10282;DHT22;5186;59.472;18.048;2022-10-30T10:48:34;8.50;99.90
10282;DHT22;5186;59.472;18.048;2022-10-30T10:51:14;8.50;99.90
10282;DHT22;5186;59.472;18.048;2022-10-30T10:54:10;8.50;99.90
10282;DHT22;5186;59.472;18.048;2022-10-30T10:56:40;8.60;99.90
10282;DHT22;5186;59.472;18.048;2022-10-30T10:59:18;8.60;99.90
10282;DHT22;5186;59.472;18.048;2022-10-30T11:01:57;8.60;99.90
10282;DHT22;5186;59.472;18.048;2022-10-30T11:04:40;8.60;99.90
10282;DHT22;5186;59.472;18.048;2022-10-30T11:07:31;8.70;99.90
10282;DHT22;5186;59.472;18.048;2022-10-30T11:09:58;8.70;99.90
10282;DHT22;5186;59.472;18.048;2022-10-30T11:12:26;8.80;99.90
10282;DHT22;5186;59.472;18.048;2022-10-30T11:14:53;8.80;99.90
10282;DHT22;5186;59.472;18.048;2022-10-30T11:17:31;8.80;99.90
10282;DHT22;5186;59.472;18.048;2022-10-30T11:20:02;8.80;99.90
10282;DHT22;5186;59.472;18.048;2022-10-30T11:22:41;8.90;99.90
10282;DHT22;5186;59.472;18.048;2022-10-30T11:25:20;8.90;99.90
10282;DHT22;5186;59.472;18.048;2022-10-30T11:27:58;8.90;99.90
10282;DHT22;5186;59.472;18.048;2022-10-30T11:30:26;8.90;99.90
10282;DHT22;5186;59.472;18.048;2022-10-30T11:32:53;8.90;99.90
10282;DHT22;5186;59.472;18.048;2022-10-30T11:35:20;9.00;99.90
10282;DHT22;5186;59.472;18.048;2022-10-30T11:37:48;9.00;99.90
10282;DHT22;5186;59.472;18.048;2022-10-30T11:40:20;9.00;99.90
10282;DHT22;5186;59.472;18.048;2022-10-30T11:42:59;9.10;99.90
10282;DHT22;5186;59.472;18.048;2022-10-30T11:47:55;9.10;99.90
10282;DHT22;5186;59.472;18.048;2022-10-30T11:50:24;9.10;99.90
10282;DHT22;5186;59.472;18.048;2022-10-30T11:52:58;9.10;99.90
10282;DHT22;5186;59.472;18.048;2022-10-30T11:55:33;9.20;99.90
10282;DHT22;5186;59.472;18.048;2022-10-30T11:58:00;9.20;99.90
10282;DHT22;5186;59.472;18.048;2022-10-30T12:00:27;9.20;99.90
10282;DHT22;5186;59.472;18.048;2022-10-30T12:02:56;9.20;99.90
10282;DHT22;5186;59.472;18.048;2022-10-30T12:07:54;9.20;99.90
10282;DHT22;5186;59.472;18.048;2022-10-30T12:10:55;9.30;99.90
10282;DHT22;5186;59.472;18.048;2022-10-30T12:13:22;9.30;99.90
10282;DHT22;5186;59.472;18.048;2022-10-30T12:16:36;9.30;99.90
10282;DHT22;5186;59.472;18.048;2022-10-30T12:18:36;9.30;99.90
10282;DHT22;5186;59.472;18.048;2022-10-30T12:21:03;9.40;99.90
10282;DHT22;5186;59.472;18.048;2022-10-30T12:23:30;9.40;99.90
10282;DHT22;5186;59.472;18.048;2022-10-30T12:26:06;9.40;99.90
10282;DHT22;5186;59.472;18.048;2022-10-30T12:28:34;9.40;99.90
10282;DHT22;5186;59.472;18.048;2022-10-30T12:31:16;9.40;99.90
10282;DHT22;5186;59.472;18.048;2022-10-30T12:34:11;9.50;99.90
10282;DHT22;5186;59.472;18.048;2022-10-30T12:42:16;9.50;99.90
10282;DHT22;5186;59.472;18.048;2022-10-30T12:47:34;9.60;99.90
10282;DHT22;5186;59.472;18.048;2022-10-30T12:53:10;9.60;99.90
10282;DHT22;5186;59.472;18.048;2022-10-30T12:55:54;9.60;99.90
10282;DHT22;5186;59.472;18.048;2022-10-30T12:58:43;9.60;99.90
10282;DHT22;5186;59.472;18.048;2022-10-30T13:01:31;9.60;99.90
10282;DHT22;5186;59.472;18.048;2022-10-30T13:04:10;9.70;99.90
10282;DHT22;5186;59.472;18.048;2022-10-30T13:09:27;9.70;99.90
10282;DHT22;5186;59.472;18.048;2022-10-30T13:11:58;9.70;99.90
10282;DHT22;5186;59.472;18.048;2022-10-30T13:14:37;9.70;99.90
10282;DHT22;5186;59.472;18.048;2022-10-30T13:17:11;9.70;99.90
10282;DHT22;5186;59.472;18.048;2022-10-30T13:19:43;9.70;99.90
10282;DHT22;5186;59.472;18.048;2022-10-30T13:38:43;9.70;99.90
10282;DHT22;5186;59.472;18.048;2022-10-30T13:50:03;9.70;99.90
10282;DHT22;5186;59.472;18.048;2022-10-30T13:52:34;9.70;99.90
10282;DHT22;5186;59.472;18.048;2022-10-30T13:55:02;9.70;99.90
10282;DHT22;5186;59.472;18.048;2022-10-30T13:57:50;9.60;99.90
10282;DHT22;5186;59.472;18.048;2022-10-30T14:00:20;9.60;99.90
10282;DHT22;5186;59.472;18.048;2022-10-30T14:11:28;9.30;99.90
10282;DHT22;5186;59.472;18.048;2022-10-30T14:13:56;9.20;99.90
10282;DHT22;5186;59.472;18.048;2022-10-30T14:19:10;9.10;99.90
10282;DHT22;5186;59.472;18.048;2022-10-30T14:24:28;8.90;99.90
10282;DHT22;5186;59.472;18.048;2022-10-30T14:31:58;8.60;99.90
10282;DHT22;5186;59.472;18.048;2022-10-30T14:34:43;8.50;99.90
10282;DHT22;5186;59.472;18.048;2022-10-30T14:37:09;8.50;99.90
10282;DHT22;5186;59.472;18.048;2022-10-30T14:39:43;8.40;99.90
10282;DHT22;5186;59.472;18.048;2022-10-30T14:45:14;8.30;99.90
10282;DHT22;5186;59.472;18.048;2022-10-30T14:56:32;7.90;99.90
10282;DHT22;5186;59.472;18.048;2022-10-30T14:59:31;7.80;99.90
10282;DHT22;5186;59.472;18.048;2022-10-30T15:04:58;7.70;99.90
10282;DHT22;5186;59.472;18.048;2022-10-30T15:07:56;7.60;99.90
10282;DHT22;5186;59.472;18.048;2022-10-30T15:10:35;7.50;99.90
10282;DHT22;5186;59.472;18.048;2022-10-30T15:13:19;7.40;99.90
10282;DHT22;5186;59.472;18.048;2022-10-30T15:15:45;7.40;99.90
10282;DHT22;5186;59.472;18.048;2022-10-30T15:18:21;7.30;99.90
10282;DHT22;5186;59.472;18.048;2022-10-30T15:20:51;7.20;99.90
10282;DHT22;5186;59.472;18.048;2022-10-30T15:23:31;7.20;99.90
10282;DHT22;5186;59.472;18.048;2022-10-30T15:25:59;7.10;99.90
10282;DHT22;5186;59.472;18.048;2022-10-30T15:28:31;7.00;99.90
10282;DHT22;5186;59.472;18.048;2022-10-30T15:31:06;6.90;99.90
10282;DHT22;5186;59.472;18.048;2022-10-30T15:33:36;6.90;99.90
10282;DHT22;5186;59.472;18.048;2022-10-30T15:36:03;6.80;99.90
10282;DHT22;5186;59.472;18.048;2022-10-30T15:38:28;6.70;99.90
10282;DHT22;5186;59.472;18.048;2022-10-30T15:40:57;6.60;99.90
10282;DHT22;5186;59.472;18.048;2022-10-30T15:43:33;6.60;99.90
10282;DHT22;5186;59.472;18.048;2022-10-30T15:46:00;6.50;99.90
10282;DHT22;5186;59.472;18.048;2022-10-30T15:48:29;6.50;99.90
10282;DHT22;5186;59.472;18.048;2022-10-30T15:51:16;6.40;99.90
10282;DHT22;5186;59.472;18.048;2022-10-30T15:54:04;6.40;99.90
10282;DHT22;5186;59.472;18.048;2022-10-30T15:56:36;6.30;99.90
10282;DHT22;5186;59.472;18.048;2022-10-30T15:59:27;6.20;99.90
10282;DHT22;5186;59.472;18.048;2022-10-30T16:01:55;6.20;99.90
10282;DHT22;5186;59.472;18.048;2022-10-30T16:04:26;6.10;99.90
10282;DHT22;5186;59.472;18.048;2022-10-30T16:07:00;6.00;99.90
10282;DHT22;5186;59.472;18.048;2022-10-30T16:09:26;5.90;99.90
10282;DHT22;5186;59.472;18.048;2022-10-30T16:11:55;5.90;99.90
10282;DHT22;5186;59.472;18.048;2022-10-30T16:14:24;5.80;99.90
10282;DHT22;5186;59.472;18.048;2022-10-30T16:16:50;5.70;99.90
10282;DHT22;5186;59.472;18.048;2022-10-30T16:19:28;5.70;99.90
10282;DHT22;5186;59.472;18.048;2022-10-30T16:21:55;5.60;99.90
10282;DHT22;5186;59.472;18.048;2022-10-30T16:24:27;5.50;99.90
10282;DHT22;5186;59.472;18.048;2022-10-30T16:27:21;5.50;99.90
10282;DHT22;5186;59.472;18.048;2022-10-30T16:29:50;5.50;99.90
10282;DHT22;5186;59.472;18.048;2022-10-30T16:32:22;5.40;99.90
10282;DHT22;5186;59.472;18.048;2022-10-30T16:34:49;5.40;99.90
10282;DHT22;5186;59.472;18.048;2022-10-30T16:37:23;5.30;99.90
10282;DHT22;5186;59.472;18.048;2022-10-30T16:39:50;5.30;99.90
10282;DHT22;5186;59.472;18.048;2022-10-30T16:42:21;5.20;99.90
10282;DHT22;5186;59.472;18.048;2022-10-30T16:44:47;5.10;99.90
10282;DHT22;5186;59.472;18.048;2022-10-30T16:49:44;5.00;99.90
10282;DHT22;5186;59.472;18.048;2022-10-30T16:52:13;5.00;99.90
10282;DHT22;5186;59.472;18.048;2022-10-30T16:54:45;5.00;99.90
10282;DHT22;5186;59.472;18.048;2022-10-30T16:57:31;4.90;99.90
10282;DHT22;5186;59.472;18.048;2022-10-30T17:00:00;4.90;99.90
10282;DHT22;5186;59.472;18.048;2022-10-30T17:02:28;4.80;99.90
10282;DHT22;5186;59.472;18.048;2022-10-30T17:05:08;4.70;99.90
10282;DHT22;5186;59.472;18.048;2022-10-30T17:07:36;4.70;99.90
10282;DHT22;5186;59.472;18.048;2022-10-30T17:10:03;4.70;99.90
10282;DHT22;5186;59.472;18.048;2022-10-30T17:12:48;4.60;99.90
10282;DHT22;5186;59.472;18.048;2022-10-30T17:15:14;4.60;99.90
10282;DHT22;5186;59.472;18.048;2022-10-30T17:17:42;4.60;99.90
10282;DHT22;5186;59.472;18.048;2022-10-30T17:22:46;4.50;99.90
10282;DHT22;5186;59.472;18.048;2022-10-30T17:25:45;4.50;99.90
10282;DHT22;5186;59.472;18.048;2022-10-30T17:28:44;4.50;99.90
10282;DHT22;5186;59.472;18.048;2022-10-30T17:31:20;4.40;99.90
10282;DHT22;5186;59.472;18.048;2022-10-30T17:34:04;4.30;99.90
10282;DHT22;5186;59.472;18.048;2022-10-30T17:36:35;4.30;99.90
10282;DHT22;5186;59.472;18.048;2022-10-30T17:39:00;4.20;99.90
10282;DHT22;5186;59.472;18.048;2022-10-30T17:41:26;4.20;99.90
10282;DHT22;5186;59.472;18.048;2022-10-30T17:43:55;4.20;99.90
10282;DHT22;5186;59.472;18.048;2022-10-30T17:46:21;4.10;99.90
10282;DHT22;5186;59.472;18.048;2022-10-30T17:48:47;4.10;99.90
10282;DHT22;5186;59.472;18.048;2022-10-30T17:51:13;4.10;99.90
10282;DHT22;5186;59.472;18.048;2022-10-30T17:53:40;4.00;99.90
10282;DHT22;5186;59.472;18.048;2022-10-30T17:58:40;4.00;99.90
10282;DHT22;5186;59.472;18.048;2022-10-30T18:01:06;3.90;99.90
10282;DHT22;5186;59.472;18.048;2022-10-30T18:03:32;3.90;99.90
10282;DHT22;5186;59.472;18.048;2022-10-30T18:06:00;3.80;99.90
10282;DHT22;5186;59.472;18.048;2022-10-30T18:08:26;3.80;99.90
10282;DHT22;5186;59.472;18.048;2022-10-30T18:10:52;3.80;99.90